sensor_id;sensor_type;location;lat;lon;timestamp;temperature;humidity
32640;DHT22;19049;52.524;11.468;2022-08-30T00:00:34;14.00;78.10
32640;DHT22;19049;52.524;11.468;2022-08-30T00:03:18;13.90;78.10
32640;DHT22;19049;52.524;11.468;2022-08-30T00:05:45;13.90;78.10
32640;DHT22;19049;52.524;11.468;2022-08-30T00:08:11;13.80;78.50
32640;DHT22;19049;52.524;11.468;2022-08-30T00:10:38;13.80;79.10
32640;DHT22;19049;52.524;11.468;2022-08-30T00:13:06;13.70;79.50
32640;DHT22;19049;52.524;11.468;2022-08-30T00:15:32;13.70;79.90
32640;DHT22;19049;52.524;11.468;2022-08-30T00:17:58;13.70;79.90
32640;DHT22;19049;52.524;11.468;2022-08-30T00:20:26;13.70;79.80
32640;DHT22;19049;52.524;11.468;2022-08-30T00:22:52;13.70;79.90
32640;DHT22;19049;52.524;11.468;2022-08-30T00:25:18;13.70;80.40
32640;DHT22;19049;52.524;11.468;2022-08-30T00:27:44;13.70;79.60
32640;DHT22;19049;52.524;11.468;2022-08-30T00:30:11;13.60;79.40
32640;DHT22;19049;52.524;11.468;2022-08-30T00:32:38;13.60;79.50
32640;DHT22;19049;52.524;11.468;2022-08-30T00:35:05;13.50;79.40
32640;DHT22;19049;52.524;11.468;2022-08-30T00:37:31;13.50;79.40
32640;DHT22;19049;52.524;11.468;2022-08-30T00:39:57;13.50;79.40
32640;DHT22;19049;52.524;11.468;2022-08-30T00:42:23;13.40;79.80
32640;DHT22;19049;52.524;11.468;2022-08-30T00:44:49;13.40;80.30
32640;DHT22;19049;52.524;11.468;2022-08-30T00:47:15;13.40;80.40
32640;DHT22;19049;52.524;11.468;2022-08-30T00:49:43;13.40;80.70
32640;DHT22;19049;52.524;11.468;2022-08-30T00:52:10;13.40;80.70
32640;DHT22;19049;52.524;11.468;2022-08-30T00:54:38;13.40;80.50
32640;DHT22;19049;52.524;11.468;2022-08-30T00:57:04;13.40;80.70
32640;DHT22;19049;52.524;11.468;2022-08-30T00:59:30;13.40;80.80
32640;DHT22;19049;52.524;11.468;2022-08-30T01:01:56;13.40;81.00
32640;DHT22;19049;52.524;11.468;2022-08-30T01:04:24;13.40;81.00
32640;DHT22;19049;52.524;11.468;2022-08-30T01:06:50;13.40;81.30
32640;DHT22;19049;52.524;11.468;2022-08-30T01:09:17;13.40;81.40
32640;DHT22;19049;52.524;11.468;2022-08-30T01:11:44;13.50;81.50
32640;DHT22;19049;52.524;11.468;2022-08-30T01:14:11;13.50;81.60
32640;DHT22;19049;52.524;11.468;2022-08-30T01:16:39;13.50;81.30
32640;DHT22;19049;52.524;11.468;2022-08-30T01:19:10;13.50;81.10
32640;DHT22;19049;52.524;11.468;2022-08-30T01:21:46;13.50;82.10
32640;DHT22;19049;52.524;11.468;2022-08-30T01:24:13;13.50;81.70
32640;DHT22;19049;52.524;11.468;2022-08-30T01:26:42;13.50;81.40
32640;DHT22;19049;52.524;11.468;2022-08-30T01:29:10;13.50;81.30
32640;DHT22;19049;52.524;11.468;2022-08-30T01:31:37;13.40;81.30
32640;DHT22;19049;52.524;11.468;2022-08-30T01:34:04;13.50;81.10
32640;DHT22;19049;52.524;11.468;2022-08-30T01:36:33;13.40;81.00
32640;DHT22;19049;52.524;11.468;2022-08-30T01:39:00;13.40;81.00
32640;DHT22;19049;52.524;11.468;2022-08-30T01:41:30;13.30;81.00
32640;DHT22;19049;52.524;11.468;2022-08-30T01:43:58;13.30;81.20
32640;DHT22;19049;52.524;11.468;2022-08-30T01:46:28;13.30;81.50
32640;DHT22;19049;52.524;11.468;2022-08-30T01:48:55;13.30;81.70
32640;DHT22;19049;52.524;11.468;2022-08-30T01:51:24;13.30;81.70
32640;DHT22;19049;52.524;11.468;2022-08-30T01:53:50;13.30;81.70
32640;DHT22;19049;52.524;11.468;2022-08-30T01:56:16;13.30;81.50
32640;DHT22;19049;52.524;11.468;2022-08-30T01:58:43;13.30;81.30
32640;DHT22;19049;52.524;11.468;2022-08-30T02:01:10;13.30;81.50
32640;DHT22;19049;52.524;11.468;2022-08-30T02:03:38;13.30;81.80
32640;DHT22;19049;52.524;11.468;2022-08-30T02:06:06;13.20;81.90
32640;DHT22;19049;52.524;11.468;2022-08-30T02:08:32;13.20;81.90
32640;DHT22;19049;52.524;11.468;2022-08-30T02:10:58;13.20;81.80
32640;DHT22;19049;52.524;11.468;2022-08-30T02:13:25;13.20;82.10
32640;DHT22;19049;52.524;11.468;2022-08-30T02:15:51;13.20;82.30
32640;DHT22;19049;52.524;11.468;2022-08-30T02:18:19;13.20;82.50
32640;DHT22;19049;52.524;11.468;2022-08-30T02:20:45;13.20;82.30
32640;DHT22;19049;52.524;11.468;2022-08-30T02:23:10;13.20;82.30
32640;DHT22;19049;52.524;11.468;2022-08-30T02:25:36;13.20;82.50
32640;DHT22;19049;52.524;11.468;2022-08-30T02:28:03;13.20;82.70
32640;DHT22;19049;52.524;11.468;2022-08-30T02:30:29;13.20;83.00
32640;DHT22;19049;52.524;11.468;2022-08-30T02:32:55;13.30;83.00
32640;DHT22;19049;52.524;11.468;2022-08-30T02:35:20;13.30;83.20
32640;DHT22;19049;52.524;11.468;2022-08-30T02:37:46;13.40;83.20
32640;DHT22;19049;52.524;11.468;2022-08-30T02:40:12;13.40;83.30
32640;DHT22;19049;52.524;11.468;2022-08-30T02:42:37;13.50;83.50
32640;DHT22;19049;52.524;11.468;2022-08-30T02:45:07;13.60;83.30
32640;DHT22;19049;52.524;11.468;2022-08-30T02:47:33;13.60;83.70
32640;DHT22;19049;52.524;11.468;2022-08-30T02:49:59;13.70;84.00
32640;DHT22;19049;52.524;11.468;2022-08-30T02:52:34;13.70;84.10
32640;DHT22;19049;52.524;11.468;2022-08-30T02:55:00;13.80;84.30
32640;DHT22;19049;52.524;11.468;2022-08-30T02:57:25;13.90;84.20
32640;DHT22;19049;52.524;11.468;2022-08-30T02:59:51;14.00;84.30
32640;DHT22;19049;52.524;11.468;2022-08-30T03:02:18;14.10;84.30
32640;DHT22;19049;52.524;11.468;2022-08-30T03:04:44;14.20;84.30
32640;DHT22;19049;52.524;11.468;2022-08-30T03:07:11;14.30;84.30
32640;DHT22;19049;52.524;11.468;2022-08-30T03:12:04;14.40;83.70
32640;DHT22;19049;52.524;11.468;2022-08-30T03:14:31;14.40;85.00
32640;DHT22;19049;52.524;11.468;2022-08-30T03:16:59;14.50;84.30
32640;DHT22;19049;52.524;11.468;2022-08-30T03:19:24;14.50;84.30
32640;DHT22;19049;52.524;11.468;2022-08-30T03:21:50;14.60;84.70
32640;DHT22;19049;52.524;11.468;2022-08-30T03:24:16;14.60;84.30
32640;DHT22;19049;52.524;11.468;2022-08-30T03:26:42;14.60;84.40
32640;DHT22;19049;52.524;11.468;2022-08-30T03:29:08;14.70;84.30
32640;DHT22;19049;52.524;11.468;2022-08-30T03:31:34;14.70;84.20
32640;DHT22;19049;52.524;11.468;2022-08-30T03:34:00;14.70;84.20
32640;DHT22;19049;52.524;11.468;2022-08-30T03:36:26;14.80;84.30
32640;DHT22;19049;52.524;11.468;2022-08-30T03:38:51;14.80;84.40
32640;DHT22;19049;52.524;11.468;2022-08-30T03:41:17;14.90;84.70
32640;DHT22;19049;52.524;11.468;2022-08-30T03:43:43;14.90;84.70
32640;DHT22;19049;52.524;11.468;2022-08-30T03:46:12;15.00;84.90
32640;DHT22;19049;52.524;11.468;2022-08-30T03:48:38;15.00;84.90
32640;DHT22;19049;52.524;11.468;2022-08-30T03:51:04;15.00;84.90
32640;DHT22;19049;52.524;11.468;2022-08-30T03:53:30;15.10;84.90
32640;DHT22;19049;52.524;11.468;2022-08-30T03:55:56;15.10;84.90
32640;DHT22;19049;52.524;11.468;2022-08-30T03:58:22;15.20;85.00
32640;DHT22;19049;52.524;11.468;2022-08-30T04:00:47;15.30;85.00
32640;DHT22;19049;52.524;11.468;2022-08-30T04:03:13;15.30;84.90
32640;DHT22;19049;52.524;11.468;2022-08-30T04:05:39;15.30;84.80
32640;DHT22;19049;52.524;11.468;2022-08-30T04:08:05;15.40;84.80
32640;DHT22;19049;52.524;11.468;2022-08-30T04:10:30;15.40;84.80
32640;DHT22;19049;52.524;11.468;2022-08-30T04:12:56;15.50;84.60
32640;DHT22;19049;52.524;11.468;2022-08-30T04:15:24;15.50;85.30
32640;DHT22;19049;52.524;11.468;2022-08-30T04:17:50;15.50;84.50
32640;DHT22;19049;52.524;11.468;2022-08-30T04:20:15;15.50;84.40
32640;DHT22;19049;52.524;11.468;2022-08-30T04:22:41;15.60;84.60
32640;DHT22;19049;52.524;11.468;2022-08-30T04:25:07;15.60;84.70
32640;DHT22;19049;52.524;11.468;2022-08-30T04:27:35;15.60;84.90
32640;DHT22;19049;52.524;11.468;2022-08-30T04:30:02;15.70;85.00
32640;DHT22;19049;52.524;11.468;2022-08-30T04:32:30;15.70;85.00
32640;DHT22;19049;52.524;11.468;2022-08-30T04:34:58;15.70;84.90
32640;DHT22;19049;52.524;11.468;2022-08-30T04:37:24;15.80;85.00
32640;DHT22;19049;52.524;11.468;2022-08-30T04:39:50;15.80;85.00
32640;DHT22;19049;52.524;11.468;2022-08-30T04:42:19;15.80;85.00
32640;DHT22;19049;52.524;11.468;2022-08-30T04:44:45;15.90;85.10
32640;DHT22;19049;52.524;11.468;2022-08-30T04:47:10;15.90;85.20
32640;DHT22;19049;52.524;11.468;2022-08-30T04:49:36;16.00;85.20
32640;DHT22;19049;52.524;11.468;2022-08-30T04:52:02;16.00;85.30
32640;DHT22;19049;52.524;11.468;2022-08-30T04:54:29;16.00;85.30
32640;DHT22;19049;52.524;11.468;2022-08-30T04:56:55;16.10;85.40
32640;DHT22;19049;52.524;11.468;2022-08-30T04:59:20;16.10;85.50
32640;DHT22;19049;52.524;11.468;2022-08-30T05:01:46;16.20;85.40
32640;DHT22;19049;52.524;11.468;2022-08-30T05:04:14;16.20;85.50
32640;DHT22;19049;52.524;11.468;2022-08-30T05:06:40;16.30;86.40
32640;DHT22;19049;52.524;11.468;2022-08-30T05:09:08;16.30;85.70
32640;DHT22;19049;52.524;11.468;2022-08-30T05:11:34;16.40;85.60
32640;DHT22;19049;52.524;11.468;2022-08-30T05:13:59;16.40;85.70
32640;DHT22;19049;52.524;11.468;2022-08-30T05:16:25;16.50;85.70
32640;DHT22;19049;52.524;11.468;2022-08-30T05:18:51;16.50;85.70
32640;DHT22;19049;52.524;11.468;2022-08-30T05:21:23;16.50;85.40
32640;DHT22;19049;52.524;11.468;2022-08-30T05:23:53;16.50;85.60
32640;DHT22;19049;52.524;11.468;2022-08-30T05:26:22;16.60;85.40
32640;DHT22;19049;52.524;11.468;2022-08-30T05:28:48;16.60;85.40
32640;DHT22;19049;52.524;11.468;2022-08-30T05:31:17;16.60;85.30
32640;DHT22;19049;52.524;11.468;2022-08-30T05:33:43;16.70;85.60
32640;DHT22;19049;52.524;11.468;2022-08-30T05:36:10;16.70;85.60
32640;DHT22;19049;52.524;11.468;2022-08-30T05:38:36;16.70;85.90
32640;DHT22;19049;52.524;11.468;2022-08-30T05:41:02;16.70;85.80
32640;DHT22;19049;52.524;11.468;2022-08-30T05:43:28;16.80;85.90
32640;DHT22;19049;52.524;11.468;2022-08-30T05:46:08;16.80;87.40
32640;DHT22;19049;52.524;11.468;2022-08-30T05:48:35;16.90;88.00
32640;DHT22;19049;52.524;11.468;2022-08-30T05:51:08;17.00;87.50
32640;DHT22;19049;52.524;11.468;2022-08-30T05:53:34;17.20;87.30
32640;DHT22;19049;52.524;11.468;2022-08-30T05:56:05;17.30;86.90
32640;DHT22;19049;52.524;11.468;2022-08-30T05:58:32;17.40;86.50
32640;DHT22;19049;52.524;11.468;2022-08-30T06:00:58;17.60;86.50
32640;DHT22;19049;52.524;11.468;2022-08-30T06:03:25;17.70;86.40
32640;DHT22;19049;52.524;11.468;2022-08-30T06:05:50;17.80;86.10
32640;DHT22;19049;52.524;11.468;2022-08-30T06:08:16;17.90;86.50
32640;DHT22;19049;52.524;11.468;2022-08-30T06:10:42;18.00;85.90
32640;DHT22;19049;52.524;11.468;2022-08-30T06:13:19;18.10;85.80
32640;DHT22;19049;52.524;11.468;2022-08-30T06:15:45;18.20;86.60
32640;DHT22;19049;52.524;11.468;2022-08-30T06:18:12;18.30;86.30
32640;DHT22;19049;52.524;11.468;2022-08-30T06:20:44;18.50;86.60
32640;DHT22;19049;52.524;11.468;2022-08-30T06:23:15;18.70;86.00
32640;DHT22;19049;52.524;11.468;2022-08-30T06:25:43;18.80;85.90
32640;DHT22;19049;52.524;11.468;2022-08-30T06:28:09;19.10;86.50
32640;DHT22;19049;52.524;11.468;2022-08-30T06:30:35;19.30;86.40
32640;DHT22;19049;52.524;11.468;2022-08-30T06:33:03;19.70;85.80
32640;DHT22;19049;52.524;11.468;2022-08-30T06:35:28;19.90;85.00
32640;DHT22;19049;52.524;11.468;2022-08-30T06:37:56;20.10;84.30
32640;DHT22;19049;52.524;11.468;2022-08-30T06:40:22;20.30;83.50
32640;DHT22;19049;52.524;11.468;2022-08-30T06:42:48;20.40;82.70
32640;DHT22;19049;52.524;11.468;2022-08-30T06:45:14;20.50;82.30
32640;DHT22;19049;52.524;11.468;2022-08-30T06:47:40;20.60;81.90
32640;DHT22;19049;52.524;11.468;2022-08-30T06:50:07;20.60;81.40
32640;DHT22;19049;52.524;11.468;2022-08-30T06:52:33;20.60;81.10
32640;DHT22;19049;52.524;11.468;2022-08-30T06:54:59;20.60;80.70
32640;DHT22;19049;52.524;11.468;2022-08-30T06:57:27;20.60;80.80
32640;DHT22;19049;52.524;11.468;2022-08-30T06:59:56;20.60;80.70
32640;DHT22;19049;52.524;11.468;2022-08-30T07:02:22;20.50;80.50
32640;DHT22;19049;52.524;11.468;2022-08-30T07:04:50;20.50;80.30
32640;DHT22;19049;52.524;11.468;2022-08-30T07:07:16;20.40;80.70
32640;DHT22;19049;52.524;11.468;2022-08-30T07:09:41;20.40;80.30
32640;DHT22;19049;52.524;11.468;2022-08-30T07:12:10;20.40;80.60
32640;DHT22;19049;52.524;11.468;2022-08-30T07:14:36;20.40;80.80
32640;DHT22;19049;52.524;11.468;2022-08-30T07:17:02;20.40;81.10
32640;DHT22;19049;52.524;11.468;2022-08-30T07:19:52;20.50;82.10
32640;DHT22;19049;52.524;11.468;2022-08-30T07:22:19;20.60;81.20
32640;DHT22;19049;52.524;11.468;2022-08-30T07:24:44;20.60;80.70
32640;DHT22;19049;52.524;11.468;2022-08-30T07:27:11;20.70;80.60
32640;DHT22;19049;52.524;11.468;2022-08-30T07:29:36;20.80;80.10
32640;DHT22;19049;52.524;11.468;2022-08-30T07:32:02;20.90;79.50
32640;DHT22;19049;52.524;11.468;2022-08-30T07:34:28;21.00;79.60
32640;DHT22;19049;52.524;11.468;2022-08-30T07:36:54;21.10;79.50
32640;DHT22;19049;52.524;11.468;2022-08-30T07:39:19;21.10;79.20
32640;DHT22;19049;52.524;11.468;2022-08-30T07:41:45;21.20;79.00
32640;DHT22;19049;52.524;11.468;2022-08-30T07:44:11;21.30;79.00
32640;DHT22;19049;52.524;11.468;2022-08-30T07:46:38;21.40;77.90
32640;DHT22;19049;52.524;11.468;2022-08-30T07:49:04;21.60;77.70
32640;DHT22;19049;52.524;11.468;2022-08-30T07:51:31;21.70;76.90
32640;DHT22;19049;52.524;11.468;2022-08-30T07:53:57;21.80;76.80
32640;DHT22;19049;52.524;11.468;2022-08-30T07:56:23;21.80;76.30
32640;DHT22;19049;52.524;11.468;2022-08-30T07:58:49;21.90;76.80
32640;DHT22;19049;52.524;11.468;2022-08-30T08:01:17;22.00;76.60
32640;DHT22;19049;52.524;11.468;2022-08-30T08:03:43;22.10;76.00
32640;DHT22;19049;52.524;11.468;2022-08-30T08:06:11;22.20;75.80
32640;DHT22;19049;52.524;11.468;2022-08-30T08:08:40;22.30;75.90
32640;DHT22;19049;52.524;11.468;2022-08-30T08:13:40;22.50;74.90
32640;DHT22;19049;52.524;11.468;2022-08-30T08:16:07;22.60;74.60
32640;DHT22;19049;52.524;11.468;2022-08-30T08:18:32;22.60;73.80
32640;DHT22;19049;52.524;11.468;2022-08-30T08:21:00;22.70;74.00
32640;DHT22;19049;52.524;11.468;2022-08-30T08:23:26;22.70;73.60
32640;DHT22;19049;52.524;11.468;2022-08-30T08:25:52;22.70;73.90
32640;DHT22;19049;52.524;11.468;2022-08-30T08:28:18;22.70;73.50
32640;DHT22;19049;52.524;11.468;2022-08-30T08:30:44;22.80;74.00
32640;DHT22;19049;52.524;11.468;2022-08-30T08:33:10;22.90;73.90
32640;DHT22;19049;52.524;11.468;2022-08-30T08:35:37;23.00;74.30
32640;DHT22;19049;52.524;11.468;2022-08-30T08:38:03;23.10;73.40
32640;DHT22;19049;52.524;11.468;2022-08-30T08:40:45;23.20;73.10
32640;DHT22;19049;52.524;11.468;2022-08-30T08:43:17;23.30;73.20
32640;DHT22;19049;52.524;11.468;2022-08-30T08:46:03;23.50;72.80
32640;DHT22;19049;52.524;11.468;2022-08-30T08:48:42;23.70;71.90
32640;DHT22;19049;52.524;11.468;2022-08-30T08:51:12;23.80;71.70
32640;DHT22;19049;52.524;11.468;2022-08-30T08:54:11;24.00;72.50
32640;DHT22;19049;52.524;11.468;2022-08-30T08:56:37;24.40;73.80
32640;DHT22;19049;52.524;11.468;2022-08-30T08:59:06;24.90;72.00
32640;DHT22;19049;52.524;11.468;2022-08-30T09:01:32;25.20;70.30
32640;DHT22;19049;52.524;11.468;2022-08-30T09:04:02;25.40;67.10
32640;DHT22;19049;52.524;11.468;2022-08-30T09:09:13;25.40;65.10
32640;DHT22;19049;52.524;11.468;2022-08-30T09:11:41;25.40;65.30
32640;DHT22;19049;52.524;11.468;2022-08-30T09:14:22;25.30;65.50
32640;DHT22;19049;52.524;11.468;2022-08-30T09:16:59;25.20;65.40
32640;DHT22;19049;52.524;11.468;2022-08-30T09:22:11;24.90;64.10
32640;DHT22;19049;52.524;11.468;2022-08-30T09:24:47;24.80;64.40
32640;DHT22;19049;52.524;11.468;2022-08-30T09:29:53;24.50;65.00
32640;DHT22;19049;52.524;11.468;2022-08-30T09:32:35;24.40;65.30
32640;DHT22;19049;52.524;11.468;2022-08-30T09:35:03;24.40;65.20
32640;DHT22;19049;52.524;11.468;2022-08-30T09:37:45;24.30;65.50
32640;DHT22;19049;52.524;11.468;2022-08-30T09:40:15;24.20;65.10
32640;DHT22;19049;52.524;11.468;2022-08-30T09:43:08;24.20;65.30
32640;DHT22;19049;52.524;11.468;2022-08-30T09:45:37;24.20;65.10
32640;DHT22;19049;52.524;11.468;2022-08-30T09:48:26;24.20;65.80
32640;DHT22;19049;52.524;11.468;2022-08-30T09:51:10;24.20;66.80
32640;DHT22;19049;52.524;11.468;2022-08-30T09:56:23;24.60;67.30
32640;DHT22;19049;52.524;11.468;2022-08-30T10:01:59;25.20;64.30
32640;DHT22;19049;52.524;11.468;2022-08-30T10:07:42;26.20;63.70
32640;DHT22;19049;52.524;11.468;2022-08-30T10:12:56;27.00;62.10
32640;DHT22;19049;52.524;11.468;2022-08-30T10:18:16;27.80;60.10
32640;DHT22;19049;52.524;11.468;2022-08-30T10:21:02;28.10;57.50
32640;DHT22;19049;52.524;11.468;2022-08-30T10:23:34;28.40;58.10
32640;DHT22;19049;52.524;11.468;2022-08-30T10:29:00;28.80;55.80
32640;DHT22;19049;52.524;11.468;2022-08-30T10:34:20;29.00;55.60
32640;DHT22;19049;52.524;11.468;2022-08-30T10:36:57;29.00;53.00
32640;DHT22;19049;52.524;11.468;2022-08-30T10:39:27;28.80;52.60
32640;DHT22;19049;52.524;11.468;2022-08-30T10:42:04;28.50;52.30
32640;DHT22;19049;52.524;11.468;2022-08-30T10:44:36;28.30;52.90
32640;DHT22;19049;52.524;11.468;2022-08-30T10:47:15;28.00;53.00
32640;DHT22;19049;52.524;11.468;2022-08-30T10:49:46;27.70;53.00
32640;DHT22;19049;52.524;11.468;2022-08-30T10:52:35;27.50;53.00
32640;DHT22;19049;52.524;11.468;2022-08-30T10:55:33;27.30;53.20
32640;DHT22;19049;52.524;11.468;2022-08-30T10:58:04;27.20;54.60
32640;DHT22;19049;52.524;11.468;2022-08-30T11:05:45;27.30;55.50
32640;DHT22;19049;52.524;11.468;2022-08-30T11:08:26;27.50;55.30
32640;DHT22;19049;52.524;11.468;2022-08-30T11:11:16;27.60;54.70
32640;DHT22;19049;52.524;11.468;2022-08-30T11:13:45;27.60;53.40
32640;DHT22;19049;52.524;11.468;2022-08-30T11:16:15;27.50;53.70
32640;DHT22;19049;52.524;11.468;2022-08-30T11:19:18;27.30;53.90
32640;DHT22;19049;52.524;11.468;2022-08-30T11:21:44;27.20;53.90
32640;DHT22;19049;52.524;11.468;2022-08-30T11:24:18;27.00;54.40
32640;DHT22;19049;52.524;11.468;2022-08-30T11:29:32;26.70;54.80
32640;DHT22;19049;52.524;11.468;2022-08-30T11:42:53;26.30;55.50
32640;DHT22;19049;52.524;11.468;2022-08-30T11:45:43;26.30;55.50
32640;DHT22;19049;52.524;11.468;2022-08-30T12:03:02;26.90;54.90
32640;DHT22;19049;52.524;11.468;2022-08-30T12:08:10;27.50;54.00
32640;DHT22;19049;52.524;11.468;2022-08-30T12:10:41;27.80;54.20
32640;DHT22;19049;52.524;11.468;2022-08-30T12:13:11;28.10;53.10
32640;DHT22;19049;52.524;11.468;2022-08-30T12:18:51;29.00;51.90
32640;DHT22;19049;52.524;11.468;2022-08-30T12:26:28;30.00;50.10
32640;DHT22;19049;52.524;11.468;2022-08-30T12:29:17;30.10;49.00
32640;DHT22;19049;52.524;11.468;2022-08-30T12:34:29;30.40;49.40
32640;DHT22;19049;52.524;11.468;2022-08-30T12:37:31;30.50;47.80
32640;DHT22;19049;52.524;11.468;2022-08-30T12:40:16;30.60;47.00
32640;DHT22;19049;52.524;11.468;2022-08-30T12:42:58;30.70;47.80
32640;DHT22;19049;52.524;11.468;2022-08-30T12:45:27;30.90;48.80
32640;DHT22;19049;52.524;11.468;2022-08-30T12:47:59;30.80;46.70
32640;DHT22;19049;52.524;11.468;2022-08-30T12:50:35;30.80;46.30
32640;DHT22;19049;52.524;11.468;2022-08-30T12:53:04;30.60;46.60
32640;DHT22;19049;52.524;11.468;2022-08-30T12:55:34;30.30;46.20
32640;DHT22;19049;52.524;11.468;2022-08-30T12:58:06;30.10;46.10
32640;DHT22;19049;52.524;11.468;2022-08-30T13:00:45;29.80;46.20
32640;DHT22;19049;52.524;11.468;2022-08-30T13:05:55;29.10;46.50
32640;DHT22;19049;52.524;11.468;2022-08-30T13:08:34;28.80;46.90
32640;DHT22;19049;52.524;11.468;2022-08-30T13:11:30;28.50;47.30
32640;DHT22;19049;52.524;11.468;2022-08-30T13:13:57;28.20;47.30
32640;DHT22;19049;52.524;11.468;2022-08-30T13:16:41;28.00;47.90
32640;DHT22;19049;52.524;11.468;2022-08-30T13:19:33;27.80;48.10
32640;DHT22;19049;52.524;11.468;2022-08-30T13:22:00;27.50;48.20
32640;DHT22;19049;52.524;11.468;2022-08-30T13:24:26;27.40;48.20
32640;DHT22;19049;52.524;11.468;2022-08-30T13:26:54;27.30;48.80
32640;DHT22;19049;52.524;11.468;2022-08-30T13:29:25;27.20;48.70
32640;DHT22;19049;52.524;11.468;2022-08-30T13:31:51;27.00;48.50
32640;DHT22;19049;52.524;11.468;2022-08-30T13:34:17;26.90;48.70
32640;DHT22;19049;52.524;11.468;2022-08-30T13:36:49;26.80;49.00
32640;DHT22;19049;52.524;11.468;2022-08-30T13:39:15;26.80;49.10
32640;DHT22;19049;52.524;11.468;2022-08-30T13:41:41;26.80;50.30
32640;DHT22;19049;52.524;11.468;2022-08-30T13:44:07;26.80;49.90
32640;DHT22;19049;52.524;11.468;2022-08-30T13:46:33;26.90;49.60
32640;DHT22;19049;52.524;11.468;2022-08-30T13:49:19;27.00;49.50
32640;DHT22;19049;52.524;11.468;2022-08-30T13:51:46;27.00;49.20
32640;DHT22;19049;52.524;11.468;2022-08-30T13:54:13;27.20;49.30
32640;DHT22;19049;52.524;11.468;2022-08-30T13:56:39;27.30;49.40
32640;DHT22;19049;52.524;11.468;2022-08-30T13:59:04;27.40;49.20
32640;DHT22;19049;52.524;11.468;2022-08-30T14:01:30;27.50;49.30
32640;DHT22;19049;52.524;11.468;2022-08-30T14:03:56;27.60;49.00
32640;DHT22;19049;52.524;11.468;2022-08-30T14:06:24;27.70;48.50
32640;DHT22;19049;52.524;11.468;2022-08-30T14:08:50;27.70;48.10
32640;DHT22;19049;52.524;11.468;2022-08-30T14:11:18;27.70;48.20
32640;DHT22;19049;52.524;11.468;2022-08-30T14:13:45;27.60;48.10
32640;DHT22;19049;52.524;11.468;2022-08-30T14:16:11;27.50;48.00
32640;DHT22;19049;52.524;11.468;2022-08-30T14:18:37;27.40;47.90
32640;DHT22;19049;52.524;11.468;2022-08-30T14:21:02;27.20;48.00
32640;DHT22;19049;52.524;11.468;2022-08-30T14:23:28;27.10;48.10
32640;DHT22;19049;52.524;11.468;2022-08-30T14:25:56;27.00;48.20
32640;DHT22;19049;52.524;11.468;2022-08-30T14:28:22;26.80;48.30
32640;DHT22;19049;52.524;11.468;2022-08-30T14:30:50;26.70;48.60
32640;DHT22;19049;52.524;11.468;2022-08-30T14:33:15;26.60;48.80
32640;DHT22;19049;52.524;11.468;2022-08-30T14:35:41;26.50;49.30
32640;DHT22;19049;52.524;11.468;2022-08-30T14:38:07;26.50;49.40
32640;DHT22;19049;52.524;11.468;2022-08-30T14:40:32;26.70;49.50
32640;DHT22;19049;52.524;11.468;2022-08-30T14:42:58;26.90;49.10
32640;DHT22;19049;52.524;11.468;2022-08-30T14:45:23;27.10;49.00
32640;DHT22;19049;52.524;11.468;2022-08-30T14:47:49;27.40;48.70
32640;DHT22;19049;52.524;11.468;2022-08-30T14:50:15;27.60;48.50
32640;DHT22;19049;52.524;11.468;2022-08-30T14:52:40;27.90;48.60
32640;DHT22;19049;52.524;11.468;2022-08-30T14:55:13;28.30;48.30
32640;DHT22;19049;52.524;11.468;2022-08-30T14:57:38;28.60;48.10
32640;DHT22;19049;52.524;11.468;2022-08-30T15:00:07;29.20;47.90
32640;DHT22;19049;52.524;11.468;2022-08-30T15:02:34;29.60;47.40
32640;DHT22;19049;52.524;11.468;2022-08-30T15:04:59;30.00;46.20
32640;DHT22;19049;52.524;11.468;2022-08-30T15:07:25;30.30;45.20
32640;DHT22;19049;52.524;11.468;2022-08-30T15:09:53;30.40;44.60
32640;DHT22;19049;52.524;11.468;2022-08-30T15:12:19;30.20;43.50
32640;DHT22;19049;52.524;11.468;2022-08-30T15:14:44;29.90;43.40
32640;DHT22;19049;52.524;11.468;2022-08-30T15:17:10;29.50;43.70
32640;DHT22;19049;52.524;11.468;2022-08-30T15:19:37;29.10;43.90
32640;DHT22;19049;52.524;11.468;2022-08-30T15:22:05;28.70;44.20
32640;DHT22;19049;52.524;11.468;2022-08-30T15:24:31;28.30;44.30
32640;DHT22;19049;52.524;11.468;2022-08-30T15:26:58;27.80;44.90
32640;DHT22;19049;52.524;11.468;2022-08-30T15:29:24;27.50;45.60
32640;DHT22;19049;52.524;11.468;2022-08-30T15:31:50;27.20;46.10
32640;DHT22;19049;52.524;11.468;2022-08-30T15:34:19;26.90;46.70
32640;DHT22;19049;52.524;11.468;2022-08-30T15:36:46;26.80;47.30
32640;DHT22;19049;52.524;11.468;2022-08-30T15:39:12;26.70;47.60
32640;DHT22;19049;52.524;11.468;2022-08-30T15:41:39;26.70;47.70
32640;DHT22;19049;52.524;11.468;2022-08-30T15:44:06;26.60;47.90
32640;DHT22;19049;52.524;11.468;2022-08-30T15:46:34;26.60;48.00
32640;DHT22;19049;52.524;11.468;2022-08-30T15:49:03;26.50;48.10
32640;DHT22;19049;52.524;11.468;2022-08-30T15:51:30;26.40;48.20
32640;DHT22;19049;52.524;11.468;2022-08-30T15:53:56;26.20;48.30
32640;DHT22;19049;52.524;11.468;2022-08-30T15:56:21;26.10;48.60
32640;DHT22;19049;52.524;11.468;2022-08-30T15:58:50;26.00;48.80
32640;DHT22;19049;52.524;11.468;2022-08-30T16:01:16;25.90;49.30
32640;DHT22;19049;52.524;11.468;2022-08-30T16:03:42;25.80;49.40
32640;DHT22;19049;52.524;11.468;2022-08-30T16:06:21;25.90;49.90
32640;DHT22;19049;52.524;11.468;2022-08-30T16:08:47;26.00;49.70
32640;DHT22;19049;52.524;11.468;2022-08-30T16:11:14;26.20;49.60
32640;DHT22;19049;52.524;11.468;2022-08-30T16:13:40;26.20;50.10
32640;DHT22;19049;52.524;11.468;2022-08-30T16:16:07;26.40;49.30
32640;DHT22;19049;52.524;11.468;2022-08-30T16:18:34;26.60;49.20
32640;DHT22;19049;52.524;11.468;2022-08-30T16:21:16;26.80;48.70
32640;DHT22;19049;52.524;11.468;2022-08-30T16:23:43;27.00;48.50
32640;DHT22;19049;52.524;11.468;2022-08-30T16:26:10;27.20;48.20
32640;DHT22;19049;52.524;11.468;2022-08-30T16:28:37;27.20;47.30
32640;DHT22;19049;52.524;11.468;2022-08-30T16:31:04;27.20;47.30
32640;DHT22;19049;52.524;11.468;2022-08-30T16:33:30;27.10;47.20
32640;DHT22;19049;52.524;11.468;2022-08-30T16:35:56;26.90;47.40
32640;DHT22;19049;52.524;11.468;2022-08-30T16:38:23;26.70;47.50
32640;DHT22;19049;52.524;11.468;2022-08-30T16:40:50;26.60;47.70
32640;DHT22;19049;52.524;11.468;2022-08-30T16:43:16;26.50;48.70
32640;DHT22;19049;52.524;11.468;2022-08-30T16:45:42;26.50;48.10
32640;DHT22;19049;52.524;11.468;2022-08-30T16:48:09;26.40;48.20